sensor_id;sensor_type;location;lat;lon;timestamp;pressure;altitude;pressure_sealevel;temperature;humidity
21520;BME280;10921;53.614;9.882;2022-07-09T00:00:29;102400.75;;;17.43;74.04
21520;BME280;10921;53.614;9.882;2022-07-09T00:02:56;102391.81;;;17.42;74.16
21520;BME280;10921;53.614;9.882;2022-07-09T00:05:22;102383.50;;;17.36;74.20
21520;BME280;10921;53.614;9.882;2022-07-09T00:07:49;102394.00;;;17.39;74.48
21520;BME280;10921;53.614;9.882;2022-07-09T00:10:15;102396.69;;;17.39;74.59
21520;BME280;10921;53.614;9.882;2022-07-09T00:12:42;102390.44;;;17.38;74.66
21520;BME280;10921;53.614;9.882;2022-07-09T00:15:09;102391.59;;;17.36;74.79
21520;BME280;10921;53.614;9.882;2022-07-09T00:17:35;102379.09;;;17.35;74.91
21520;BME280;10921;53.614;9.882;2022-07-09T00:20:02;102383.78;;;17.33;74.91
21520;BME280;10921;53.614;9.882;2022-07-09T00:22:31;102383.91;;;17.31;74.97
21520;BME280;10921;53.614;9.882;2022-07-09T00:24:58;102381.66;;;17.27;75.07
21520;BME280;10921;53.614;9.882;2022-07-09T00:27:25;102372.75;;;17.26;75.21
21520;BME280;10921;53.614;9.882;2022-07-09T00:29:52;102371.03;;;17.25;75.53
21520;BME280;10921;53.614;9.882;2022-07-09T00:32:18;102375.59;;;17.25;75.53
21520;BME280;10921;53.614;9.882;2022-07-09T00:34:45;102370.47;;;17.21;75.73
21520;BME280;10921;53.614;9.882;2022-07-09T00:37:11;102365.09;;;17.21;75.78
21520;BME280;10921;53.614;9.882;2022-07-09T00:39:38;102367.78;;;17.21;75.99
21520;BME280;10921;53.614;9.882;2022-07-09T00:42:06;102352.59;;;17.20;76.05
21520;BME280;10921;53.614;9.882;2022-07-09T00:44:33;102358.84;;;17.21;76.01
21520;BME280;10921;53.614;9.882;2022-07-09T00:47:00;102366.94;;;17.21;76.09
21520;BME280;10921;53.614;9.882;2022-07-09T00:49:31;102358.97;;;17.19;76.65
21520;BME280;10921;53.614;9.882;2022-07-09T00:51:58;102357.13;;;17.20;75.94
21520;BME280;10921;53.614;9.882;2022-07-09T00:54:26;102366.38;;;17.17;76.29
21520;BME280;10921;53.614;9.882;2022-07-09T00:56:53;102358.13;;;17.19;76.13
21520;BME280;10921;53.614;9.882;2022-07-09T00:59:21;102359.13;;;17.18;76.23
21520;BME280;10921;53.614;9.882;2022-07-09T01:01:49;102354.03;;;17.15;76.46
21520;BME280;10921;53.614;9.882;2022-07-09T01:04:16;102357.72;;;17.14;76.49
21520;BME280;10921;53.614;9.882;2022-07-09T01:06:43;102345.53;;;17.10;76.58
21520;BME280;10921;53.614;9.882;2022-07-09T01:09:10;102351.09;;;17.08;76.40
21520;BME280;10921;53.614;9.882;2022-07-09T01:11:37;102353.06;;;17.06;76.88
21520;BME280;10921;53.614;9.882;2022-07-09T01:14:03;102347.69;;;17.06;77.01
21520;BME280;10921;53.614;9.882;2022-07-09T01:16:31;102352.66;;;17.01;77.24
21520;BME280;10921;53.614;9.882;2022-07-09T01:18:58;102355.34;;;17.01;77.35
21520;BME280;10921;53.614;9.882;2022-07-09T01:21:25;102354.50;;;17.01;77.45
21520;BME280;10921;53.614;9.882;2022-07-09T01:23:52;102340.16;;;17.00;77.54
21520;BME280;10921;53.614;9.882;2022-07-09T01:26:18;102353.66;;;17.00;78.05
21520;BME280;10921;53.614;9.882;2022-07-09T01:28:47;102345.56;;;17.00;78.19
21520;BME280;10921;53.614;9.882;2022-07-09T01:31:14;102343.84;;;16.99;78.46
21520;BME280;10921;53.614;9.882;2022-07-09T01:33:42;102331.22;;;17.00;78.40
21520;BME280;10921;53.614;9.882;2022-07-09T01:36:08;102336.47;;;17.01;78.34
21520;BME280;10921;53.614;9.882;2022-07-09T01:38:35;102339.19;;;17.01;78.40
21520;BME280;10921;53.614;9.882;2022-07-09T01:41:02;102323.13;;;17.00;78.45
21520;BME280;10921;53.614;9.882;2022-07-09T01:43:29;102326.53;;;17.02;78.74
21520;BME280;10921;53.614;9.882;2022-07-09T01:45:57;102324.69;;;17.02;78.59
21520;BME280;10921;53.614;9.882;2022-07-09T01:48:27;102325.53;;;17.03;78.80
21520;BME280;10921;53.614;9.882;2022-07-09T01:50:55;102323.69;;;17.03;78.95
21520;BME280;10921;53.614;9.882;2022-07-09T01:53:24;102327.09;;;17.05;79.03
21520;BME280;10921;53.614;9.882;2022-07-09T01:55:51;102312.75;;;17.05;78.70
21520;BME280;10921;53.614;9.882;2022-07-09T01:58:17;102324.25;;;17.07;78.99
21520;BME280;10921;53.614;9.882;2022-07-09T02:00:44;102314.31;;;17.07;79.04
21520;BME280;10921;53.614;9.882;2022-07-09T02:03:11;102309.78;;;17.08;79.10
21520;BME280;10921;53.614;9.882;2022-07-09T02:05:37;102304.38;;;17.08;79.26
21520;BME280;10921;53.614;9.882;2022-07-09T02:08:04;102305.22;;;17.08;79.34
21520;BME280;10921;53.614;9.882;2022-07-09T02:10:30;102300.53;;;17.10;79.33
21520;BME280;10921;53.614;9.882;2022-07-09T02:12:57;102295.81;;;17.12;79.34
21520;BME280;10921;53.614;9.882;2022-07-09T02:15:23;102297.53;;;17.13;79.39
21520;BME280;10921;53.614;9.882;2022-07-09T02:17:50;102295.69;;;17.14;79.52
21520;BME280;10921;53.614;9.882;2022-07-09T02:20:16;102297.22;;;17.16;79.34
21520;BME280;10921;53.614;9.882;2022-07-09T02:22:43;102284.59;;;17.17;79.38
21520;BME280;10921;53.614;9.882;2022-07-09T02:25:09;102286.84;;;17.21;79.29
21520;BME280;10921;53.614;9.882;2022-07-09T02:27:36;102287.72;;;17.22;79.33
21520;BME280;10921;53.614;9.882;2022-07-09T02:30:03;102284.00;;;17.23;79.71
21520;BME280;10921;53.614;9.882;2022-07-09T02:32:29;102283.00;;;17.24;79.77
21520;BME280;10921;53.614;9.882;2022-07-09T02:34:55;102287.22;;;17.27;79.62
21520;BME280;10921;53.614;9.882;2022-07-09T02:37:22;102284.38;;;17.28;79.49
21520;BME280;10921;53.614;9.882;2022-07-09T02:39:48;102281.53;;;17.30;79.63
21520;BME280;10921;53.614;9.882;2022-07-09T02:42:15;102280.53;;;17.31;79.53
21520;BME280;10921;53.614;9.882;2022-07-09T02:44:44;102272.16;;;17.34;79.89
21520;BME280;10921;53.614;9.882;2022-07-09T02:47:10;102276.56;;;17.35;79.39
21520;BME280;10921;53.614;9.882;2022-07-09T02:49:37;102279.09;;;17.36;79.33
21520;BME280;10921;53.614;9.882;2022-07-09T02:52:04;102277.25;;;17.37;79.43
21520;BME280;10921;53.614;9.882;2022-07-09T02:54:30;102281.81;;;17.36;79.18
21520;BME280;10921;53.614;9.882;2022-07-09T02:56:57;102283.22;;;17.40;79.14
21520;BME280;10921;53.614;9.882;2022-07-09T02:59:24;102282.34;;;17.40;79.54
21520;BME280;10921;53.614;9.882;2022-07-09T03:01:51;102283.03;;;17.42;79.55
21520;BME280;10921;53.614;9.882;2022-07-09T03:04:17;102287.28;;;17.44;79.37
21520;BME280;10921;53.614;9.882;2022-07-09T03:06:44;102281.72;;;17.46;79.63
21520;BME280;10921;53.614;9.882;2022-07-09T03:09:10;102273.50;;;17.47;79.34
21520;BME280;10921;53.614;9.882;2022-07-09T03:11:37;102278.88;;;17.47;79.60
21520;BME280;10921;53.614;9.882;2022-07-09T03:14:03;102273.09;;;17.42;79.64
21520;BME280;10921;53.614;9.882;2022-07-09T03:16:30;102268.94;;;17.48;79.73
21520;BME280;10921;53.614;9.882;2022-07-09T03:18:57;102270.09;;;17.45;79.84
21520;BME280;10921;53.614;9.882;2022-07-09T03:21:23;102271.09;;;17.44;79.99
21520;BME280;10921;53.614;9.882;2022-07-09T03:23:49;102254.03;;;17.44;80.04
21520;BME280;10921;53.614;9.882;2022-07-09T03:26:16;102248.13;;;17.40;80.39
21520;BME280;10921;53.614;9.882;2022-07-09T03:28:42;102240.88;;;17.41;80.46
21520;BME280;10921;53.614;9.882;2022-07-09T03:31:09;102237.47;;;17.39;80.70
21520;BME280;10921;53.614;9.882;2022-07-09T03:33:36;102245.56;;;17.39;80.76
21520;BME280;10921;53.614;9.882;2022-07-09T03:36:02;102242.88;;;17.39;81.02
21520;BME280;10921;53.614;9.882;2022-07-09T03:38:30;102248.28;;;17.39;81.18
21520;BME280;10921;53.614;9.882;2022-07-09T03:40:57;102247.56;;;17.37;81.25
21520;BME280;10921;53.614;9.882;2022-07-09T03:43:23;102236.94;;;17.35;81.23
21520;BME280;10921;53.614;9.882;2022-07-09T03:45:50;102235.22;;;17.34;81.47
21520;BME280;10921;53.614;9.882;2022-07-09T03:48:16;102239.94;;;17.32;81.87
21520;BME280;10921;53.614;9.882;2022-07-09T03:50:43;102232.84;;;17.31;81.88
21520;BME280;10921;53.614;9.882;2022-07-09T03:53:09;102230.13;;;17.31;81.99
21520;BME280;10921;53.614;9.882;2022-07-09T03:55:36;102219.50;;;17.30;82.14
21520;BME280;10921;53.614;9.882;2022-07-09T03:58:03;102218.63;;;17.29;82.11
21520;BME280;10921;53.614;9.882;2022-07-09T04:00:29;102225.88;;;17.29;82.67
21520;BME280;10921;53.614;9.882;2022-07-09T04:02:55;102225.72;;;17.30;82.61
21520;BME280;10921;53.614;9.882;2022-07-09T04:05:22;102218.50;;;17.31;82.66
21520;BME280;10921;53.614;9.882;2022-07-09T04:07:49;102218.50;;;17.31;82.89
21520;BME280;10921;53.614;9.882;2022-07-09T04:10:15;102219.19;;;17.33;82.84
21520;BME280;10921;53.614;9.882;2022-07-09T04:12:41;102220.88;;;17.34;82.90
21520;BME280;10921;53.614;9.882;2022-07-09T04:15:08;102228.84;;;17.35;83.02
21520;BME280;10921;53.614;9.882;2022-07-09T04:17:35;102225.00;;;17.38;83.02
21520;BME280;10921;53.614;9.882;2022-07-09T04:20:02;102222.00;;;17.41;82.63
21520;BME280;10921;53.614;9.882;2022-07-09T04:22:29;102226.34;;;17.42;82.79
21520;BME280;10921;53.614;9.882;2022-07-09T04:24:57;102231.47;;;17.45;82.87
21520;BME280;10921;53.614;9.882;2022-07-09T04:27:23;102232.16;;;17.47;83.11
21520;BME280;10921;53.614;9.882;2022-07-09T04:29:50;102228.31;;;17.49;82.81
21520;BME280;10921;53.614;9.882;2022-07-09T04:32:16;102226.47;;;17.50;82.79
21520;BME280;10921;53.614;9.882;2022-07-09T04:34:43;102229.72;;;17.53;82.69
21520;BME280;10921;53.614;9.882;2022-07-09T04:37:09;102219.75;;;17.54;82.58
21520;BME280;10921;53.614;9.882;2022-07-09T04:39:35;102226.53;;;17.58;82.52
21520;BME280;10921;53.614;9.882;2022-07-09T04:42:02;102221.13;;;17.58;82.38
21520;BME280;10921;53.614;9.882;2022-07-09T04:44:29;102213.72;;;17.60;82.42
21520;BME280;10921;53.614;9.882;2022-07-09T04:46:55;102222.53;;;17.62;82.50
21520;BME280;10921;53.614;9.882;2022-07-09T04:49:22;102217.97;;;17.63;82.69
21520;BME280;10921;53.614;9.882;2022-07-09T04:51:50;102223.25;;;17.64;82.63
21520;BME280;10921;53.614;9.882;2022-07-09T04:54:17;102222.09;;;17.67;82.63
21520;BME280;10921;53.614;9.882;2022-07-09T04:56:44;102225.66;;;17.67;82.90
21520;BME280;10921;53.614;9.882;2022-07-09T04:59:10;102219.09;;;17.70;82.76
21520;BME280;10921;53.614;9.882;2022-07-09T05:01:37;102227.56;;;17.75;82.78
21520;BME280;10921;53.614;9.882;2022-07-09T05:04:03;102213.75;;;17.78;82.85
21520;BME280;10921;53.614;9.882;2022-07-09T05:06:30;102216.16;;;17.81;82.91
21520;BME280;10921;53.614;9.882;2022-07-09T05:08:57;102218.41;;;17.85;82.93
21520;BME280;10921;53.614;9.882;2022-07-09T05:11:23;102209.97;;;17.88;82.66
21520;BME280;10921;53.614;9.882;2022-07-09T05:13:50;102201.56;;;17.91;82.42
21520;BME280;10921;53.614;9.882;2022-07-09T05:16:17;102210.03;;;17.97;82.30
21520;BME280;10921;53.614;9.882;2022-07-09T05:18:43;102206.19;;;17.99;82.04
21520;BME280;10921;53.614;9.882;2022-07-09T05:21:10;102207.72;;;18.02;81.53
21520;BME280;10921;53.614;9.882;2022-07-09T05:23:36;102205.69;;;18.04;82.00
21520;BME280;10921;53.614;9.882;2022-07-09T05:26:03;102215.88;;;18.10;82.04
21520;BME280;10921;53.614;9.882;2022-07-09T05:28:29;102214.72;;;18.12;81.77
21520;BME280;10921;53.614;9.882;2022-07-09T05:30:56;102212.41;;;18.17;81.85
21520;BME280;10921;53.614;9.882;2022-07-09T05:33:43;102200.41;;;18.20;81.73
21520;BME280;10921;53.614;9.882;2022-07-09T05:36:15;102211.06;;;18.21;81.69
21520;BME280;10921;53.614;9.882;2022-07-09T05:38:44;102205.56;;;18.31;81.42
21520;BME280;10921;53.614;9.882;2022-07-09T05:41:10;102207.09;;;18.34;81.12
21520;BME280;10921;53.614;9.882;2022-07-09T05:43:37;102210.16;;;18.39;81.08
21520;BME280;10921;53.614;9.882;2022-07-09T05:46:03;102202.44;;;18.44;80.74
21520;BME280;10921;53.614;9.882;2022-07-09T05:48:30;102212.25;;;18.45;80.69
21520;BME280;10921;53.614;9.882;2022-07-09T05:50:57;102194.19;;;18.45;80.65
21520;BME280;10921;53.614;9.882;2022-07-09T05:53:23;102206.19;;;18.51;80.64
21520;BME280;10921;53.614;9.882;2022-07-09T05:55:50;102202.47;;;18.52;80.35
21520;BME280;10921;53.614;9.882;2022-07-09T05:58:17;102199.28;;;18.56;80.03
21520;BME280;10921;53.614;9.882;2022-07-09T06:00:44;102198.00;;;18.60;79.29
21520;BME280;10921;53.614;9.882;2022-07-09T06:03:10;102193.59;;;18.59;79.74
21520;BME280;10921;53.614;9.882;2022-07-09T06:05:37;102193.94;;;18.65;80.06
21520;BME280;10921;53.614;9.882;2022-07-09T06:08:03;102196.50;;;18.66;79.79
21520;BME280;10921;53.614;9.882;2022-07-09T06:10:30;102195.31;;;18.69;79.79
21520;BME280;10921;53.614;9.882;2022-07-09T06:12:56;102199.09;;;18.76;79.54
21520;BME280;10921;53.614;9.882;2022-07-09T06:15:23;102188.97;;;18.78;79.70
21520;BME280;10921;53.614;9.882;2022-07-09T06:17:49;102191.16;;;18.82;79.70
21520;BME280;10921;53.614;9.882;2022-07-09T06:20:17;102189.66;;;18.88;79.58
21520;BME280;10921;53.614;9.882;2022-07-09T06:22:43;102188.69;;;18.97;79.41
21520;BME280;10921;53.614;9.882;2022-07-09T06:25:10;102190.72;;;19.03;78.95
21520;BME280;10921;53.614;9.882;2022-07-09T06:27:36;102192.28;;;19.14;78.73
21520;BME280;10921;53.614;9.882;2022-07-09T06:30:03;102184.84;;;19.16;78.40
21520;BME280;10921;53.614;9.882;2022-07-09T06:32:30;102186.38;;;19.26;78.53
21520;BME280;10921;53.614;9.882;2022-07-09T06:34:56;102184.72;;;19.33;78.17
21520;BME280;10921;53.614;9.882;2022-07-09T06:37:23;102184.06;;;19.40;77.57
21520;BME280;10921;53.614;9.882;2022-07-09T06:39:49;102187.78;;;19.47;77.56
21520;BME280;10921;53.614;9.882;2022-07-09T06:42:17;102189.69;;;19.54;77.52
21520;BME280;10921;53.614;9.882;2022-07-09T06:44:44;102179.34;;;19.58;76.54
21520;BME280;10921;53.614;9.882;2022-07-09T06:47:11;102185.47;;;19.68;76.15
21520;BME280;10921;53.614;9.882;2022-07-09T06:49:38;102170.91;;;19.77;76.25
21520;BME280;10921;53.614;9.882;2022-07-09T06:52:05;102184.63;;;19.84;76.19
21520;BME280;10921;53.614;9.882;2022-07-09T06:54:33;102180.91;;;19.93;75.58
21520;BME280;10921;53.614;9.882;2022-07-09T06:56:59;102181.38;;;20.05;75.79
21520;BME280;10921;53.614;9.882;2022-07-09T06:59:32;102183.09;;;20.14;74.78
21520;BME280;10921;53.614;9.882;2022-07-09T07:01:58;102176.63;;;20.23;74.45
21520;BME280;10921;53.614;9.882;2022-07-09T07:04:25;102181.84;;;20.32;74.29
21520;BME280;10921;53.614;9.882;2022-07-09T07:06:52;102175.44;;;20.42;74.23
21520;BME280;10921;53.614;9.882;2022-07-09T07:09:19;102172.38;;;20.45;73.34
21520;BME280;10921;53.614;9.882;2022-07-09T07:11:50;102182.66;;;20.57;73.53
21520;BME280;10921;53.614;9.882;2022-07-09T07:14:17;102183.47;;;20.66;72.55
21520;BME280;10921;53.614;9.882;2022-07-09T07:16:44;102169.72;;;20.67;72.69
21520;BME280;10921;53.614;9.882;2022-07-09T07:19:11;102174.63;;;20.72;72.28
21520;BME280;10921;53.614;9.882;2022-07-09T07:21:37;102173.28;;;20.76;72.22
21520;BME280;10921;53.614;9.882;2022-07-09T07:24:05;102179.31;;;20.86;71.93
21520;BME280;10921;53.614;9.882;2022-07-09T07:26:33;102169.09;;;20.96;72.21
21520;BME280;10921;53.614;9.882;2022-07-09T07:29:00;102172.72;;;21.12;71.69
21520;BME280;10921;53.614;9.882;2022-07-09T07:31:26;102170.13;;;21.26;71.02
21520;BME280;10921;53.614;9.882;2022-07-09T07:33:53;102174.50;;;21.35;68.86
21520;BME280;10921;53.614;9.882;2022-07-09T07:36:19;102179.69;;;21.45;68.38
21520;BME280;10921;53.614;9.882;2022-07-09T07:38:46;102175.22;;;21.52;68.92
21520;BME280;10921;53.614;9.882;2022-07-09T07:41:13;102167.19;;;21.59;68.79
21520;BME280;10921;53.614;9.882;2022-07-09T07:43:39;102166.28;;;21.66;68.06
21520;BME280;10921;53.614;9.882;2022-07-09T07:46:06;102163.00;;;21.71;67.53
21520;BME280;10921;53.614;9.882;2022-07-09T07:48:33;102153.19;;;21.85;67.66
21520;BME280;10921;53.614;9.882;2022-07-09T07:51:03;102147.53;;;21.94;67.36
21520;BME280;10921;53.614;9.882;2022-07-09T07:53:31;102153.38;;;22.06;67.68
21520;BME280;10921;53.614;9.882;2022-07-09T07:55:59;102153.09;;;22.16;66.81
21520;BME280;10921;53.614;9.882;2022-07-09T07:58:27;102148.06;;;22.27;65.67
21520;BME280;10921;53.614;9.882;2022-07-09T08:00:53;102144.38;;;22.35;65.37
21520;BME280;10921;53.614;9.882;2022-07-09T08:03:20;102146.19;;;22.42;65.19
21520;BME280;10921;53.614;9.882;2022-07-09T08:05:47;102152.53;;;22.50;64.72
21520;BME280;10921;53.614;9.882;2022-07-09T08:08:13;102156.22;;;22.57;64.90
21520;BME280;10921;53.614;9.882;2022-07-09T08:10:40;102148.53;;;22.60;64.45
21520;BME280;10921;53.614;9.882;2022-07-09T08:13:06;102144.47;;;22.71;64.33
21520;BME280;10921;53.614;9.882;2022-07-09T08:15:33;102129.66;;;22.73;63.05
21520;BME280;10921;53.614;9.882;2022-07-09T08:17:59;102153.28;;;22.73;62.53
21520;BME280;10921;53.614;9.882;2022-07-09T08:20:26;102157.69;;;22.74;62.57
21520;BME280;10921;53.614;9.882;2022-07-09T08:22:52;102140.06;;;22.70;63.20
21520;BME280;10921;53.614;9.882;2022-07-09T08:25:19;102143.72;;;22.62;62.64
21520;BME280;10921;53.614;9.882;2022-07-09T08:27:45;102145.16;;;22.58;63.04
21520;BME280;10921;53.614;9.882;2022-07-09T08:30:11;102146.56;;;22.54;63.12
21520;BME280;10921;53.614;9.882;2022-07-09T08:32:38;102153.22;;;22.52;63.16
21520;BME280;10921;53.614;9.882;2022-07-09T08:35:06;102154.78;;;22.46;63.07
21520;BME280;10921;53.614;9.882;2022-07-09T08:37:32;102153.03;;;22.38;63.17
21520;BME280;10921;53.614;9.882;2022-07-09T08:40:00;102135.97;;;22.30;63.47
21520;BME280;10921;53.614;9.882;2022-07-09T08:42:27;102140.38;;;22.45;64.10
21520;BME280;10921;53.614;9.882;2022-07-09T08:44:54;102138.38;;;22.54;62.77
21520;BME280;10921;53.614;9.882;2022-07-09T08:47:21;102145.59;;;22.62;61.36
21520;BME280;10921;53.614;9.882;2022-07-09T08:49:49;102139.22;;;22.69;60.67
21520;BME280;10921;53.614;9.882;2022-07-09T08:52:16;102130.78;;;22.79;59.63
21520;BME280;10921;53.614;9.882;2022-07-09T08:54:44;102111.81;;;22.86;60.34
21520;BME280;10921;53.614;9.882;2022-07-09T08:57:11;102120.59;;;23.02;59.91
21520;BME280;10921;53.614;9.882;2022-07-09T08:59:37;102132.47;;;23.16;59.54
21520;BME280;10921;53.614;9.882;2022-07-09T09:02:05;102121.72;;;23.29;59.04
21520;BME280;10921;53.614;9.882;2022-07-09T09:04:33;102129.97;;;23.36;58.65
21520;BME280;10921;53.614;9.882;2022-07-09T09:07:17;102123.66;;;23.57;58.81
21520;BME280;10921;53.614;9.882;2022-07-09T09:09:45;102119.13;;;23.64;57.50
21520;BME280;10921;53.614;9.882;2022-07-09T09:12:12;102131.75;;;23.71;57.01
21520;BME280;10921;53.614;9.882;2022-07-09T09:14:47;102116.31;;;23.78;56.45
21520;BME280;10921;53.614;9.882;2022-07-09T09:17:15;102127.03;;;23.80;56.82
21520;BME280;10921;53.614;9.882;2022-07-09T09:19:41;102118.56;;;23.96;57.14
21520;BME280;10921;53.614;9.882;2022-07-09T09:22:08;102116.38;;;24.19;56.31
21520;BME280;10921;53.614;9.882;2022-07-09T09:24:35;102121.84;;;24.54;55.09
21520;BME280;10921;53.614;9.882;2022-07-09T09:27:02;102125.94;;;24.78;52.93
21520;BME280;10921;53.614;9.882;2022-07-09T09:29:28;102122.91;;;25.01;52.31
21520;BME280;10921;53.614;9.882;2022-07-09T09:31:55;102130.50;;;25.25;52.04
21520;BME280;10921;53.614;9.882;2022-07-09T09:34:22;102125.50;;;25.42;50.92
21520;BME280;10921;53.614;9.882;2022-07-09T09:36:51;102120.06;;;25.62;50.51
21520;BME280;10921;53.614;9.882;2022-07-09T09:39:23;102120.50;;;25.78;50.16
21520;BME280;10921;53.614;9.882;2022-07-09T09:42:01;102119.00;;;25.89;49.07
21520;BME280;10921;53.614;9.882;2022-07-09T09:44:30;102112.47;;;25.90;48.16
21520;BME280;10921;53.614;9.882;2022-07-09T09:46:59;102118.38;;;25.87;49.11
21520;BME280;10921;53.614;9.882;2022-07-09T09:49:25;102111.44;;;25.78;48.34
21520;BME280;10921;53.614;9.882;2022-07-09T09:52:05;102124.28;;;25.64;48.93
21520;BME280;10921;53.614;9.882;2022-07-09T09:54:33;102115.41;;;25.55;49.23
21520;BME280;10921;53.614;9.882;2022-07-09T09:57:05;102108.69;;;25.58;50.14
21520;BME280;10921;53.614;9.882;2022-07-09T09:59:33;102118.38;;;25.67;50.67
21520;BME280;10921;53.614;9.882;2022-07-09T10:02:05;102112.28;;;25.78;48.99
21520;BME280;10921;53.614;9.882;2022-07-09T10:04:38;102115.44;;;25.95;48.11
21520;BME280;10921;53.614;9.882;2022-07-09T10:07:07;102109.28;;;26.13;46.83
21520;BME280;10921;53.614;9.882;2022-07-09T10:09:34;102101.69;;;26.21;45.91
21520;BME280;10921;53.614;9.882;2022-07-09T10:12:00;102100.84;;;26.21;46.21
21520;BME280;10921;53.614;9.882;2022-07-09T10:16:54;102108.00;;;26.15;46.64
21520;BME280;10921;53.614;9.882;2022-07-09T10:19:28;102112.44;;;26.23;47.10
21520;BME280;10921;53.614;9.882;2022-07-09T10:21:57;102105.69;;;26.25;46.42
21520;BME280;10921;53.614;9.882;2022-07-09T10:26:52;102093.88;;;26.38;46.03
21520;BME280;10921;53.614;9.882;2022-07-09T10:29:19;102097.03;;;26.42;45.89
21520;BME280;10921;53.614;9.882;2022-07-09T10:31:46;102085.88;;;26.37;46.77
21520;BME280;10921;53.614;9.882;2022-07-09T10:37:14;102101.00;;;26.46;46.13
21520;BME280;10921;53.614;9.882;2022-07-09T10:39:52;102104.78;;;26.51;46.71
21520;BME280;10921;53.614;9.882;2022-07-09T10:42:20;102112.22;;;26.31;46.73
21520;BME280;10921;53.614;9.882;2022-07-09T10:44:47;102118.56;;;26.05;47.09
21520;BME280;10921;53.614;9.882;2022-07-09T10:47:17;102124.03;;;25.85;47.24
21520;BME280;10921;53.614;9.882;2022-07-09T10:49:43;102103.66;;;25.62;48.56
21520;BME280;10921;53.614;9.882;2022-07-09T10:52:10;102101.09;;;25.40;48.70
21520;BME280;10921;53.614;9.882;2022-07-09T10:54:47;102108.25;;;25.28;49.85
21520;BME280;10921;53.614;9.882;2022-07-09T10:57:14;102103.81;;;25.14;51.32
21520;BME280;10921;53.614;9.882;2022-07-09T10:59:47;102102.75;;;25.15;50.27
21520;BME280;10921;53.614;9.882;2022-07-09T11:02:18;102108.66;;;25.25;50.49
21520;BME280;10921;53.614;9.882;2022-07-09T11:04:48;102092.91;;;25.34;49.98
21520;BME280;10921;53.614;9.882;2022-07-09T11:07:23;102099.84;;;25.49;50.40
21520;BME280;10921;53.614;9.882;2022-07-09T11:09:51;102103.06;;;25.66;49.49
21520;BME280;10921;53.614;9.882;2022-07-09T11:12:19;102090.00;;;25.75;48.03
21520;BME280;10921;53.614;9.882;2022-07-09T11:14:47;102085.97;;;25.84;47.08
21520;BME280;10921;53.614;9.882;2022-07-09T11:17:16;102092.03;;;25.99;48.04
21520;BME280;10921;53.614;9.882;2022-07-09T11:19:42;102086.75;;;26.17;47.43
21520;BME280;10921;53.614;9.882;2022-07-09T11:22:09;102081.47;;;26.36;46.54
21520;BME280;10921;53.614;9.882;2022-07-09T11:24:36;102088.13;;;26.53;45.28
21520;BME280;10921;53.614;9.882;2022-07-09T11:27:07;102094.41;;;26.67;45.20
21520;BME280;10921;53.614;9.882;2022-07-09T11:29:36;102084.00;;;26.82;44.94
21520;BME280;10921;53.614;9.882;2022-07-09T11:32:03;102088.59;;;26.94;44.07
21520;BME280;10921;53.614;9.882;2022-07-09T11:34:30;102086.44;;;27.03;44.30
21520;BME280;10921;53.614;9.882;2022-07-09T11:36:58;102087.50;;;27.02;44.74
21520;BME280;10921;53.614;9.882;2022-07-09T11:39:28;102074.38;;;27.11;45.06
21520;BME280;10921;53.614;9.882;2022-07-09T11:41:57;102079.09;;;26.90;45.45
21520;BME280;10921;53.614;9.882;2022-07-09T11:44:30;102097.19;;;26.91;44.51
21520;BME280;10921;53.614;9.882;2022-07-09T11:49:32;102102.41;;;26.68;43.22
21520;BME280;10921;53.614;9.882;2022-07-09T11:51:59;102098.19;;;26.59;43.41
21520;BME280;10921;53.614;9.882;2022-07-09T11:54:27;102096.94;;;26.61;43.64
21520;BME280;10921;53.614;9.882;2022-07-09T11:56:54;102084.31;;;26.60;43.66
21520;BME280;10921;53.614;9.882;2022-07-09T11:59:28;102097.66;;;26.88;43.17
21520;BME280;10921;53.614;9.882;2022-07-09T12:01:58;102080.72;;;27.05;42.16
21520;BME280;10921;53.614;9.882;2022-07-09T12:04:29;102090.16;;;27.15;43.33
21520;BME280;10921;53.614;9.882;2022-07-09T12:06:57;102099.03;;;27.11;42.77
21520;BME280;10921;53.614;9.882;2022-07-09T12:09:30;102093.75;;;27.09;42.57
21520;BME280;10921;53.614;9.882;2022-07-09T12:11:58;102108.38;;;26.90;41.42
21520;BME280;10921;53.614;9.882;2022-07-09T12:14:25;102108.31;;;26.58;41.99
21520;BME280;10921;53.614;9.882;2022-07-09T12:16:52;102112.63;;;26.35;42.63
21520;BME280;10921;53.614;9.882;2022-07-09T12:19:18;102117.09;;;26.09;43.21
21520;BME280;10921;53.614;9.882;2022-07-09T12:21:45;102115.19;;;26.03;43.57
21520;BME280;10921;53.614;9.882;2022-07-09T12:24:11;102118.81;;;25.97;43.90
21520;BME280;10921;53.614;9.882;2022-07-09T12:26:38;102117.97;;;25.97;43.70
21520;BME280;10921;53.614;9.882;2022-07-09T12:29:24;102121.09;;;25.87;43.28
21520;BME280;10921;53.614;9.882;2022-07-09T12:31:51;102123.41;;;25.70;43.68
21520;BME280;10921;53.614;9.882;2022-07-09T12:34:17;102128.66;;;25.58;43.00
21520;BME280;10921;53.614;9.882;2022-07-09T12:36:44;102118.13;;;25.42;43.86
21520;BME280;10921;53.614;9.882;2022-07-09T12:39:24;102107.84;;;25.31;43.52
21520;BME280;10921;53.614;9.882;2022-07-09T12:41:51;102115.56;;;25.21;42.91
21520;BME280;10921;53.614;9.882;2022-07-09T12:44:17;102107.19;;;25.16;44.39
21520;BME280;10921;53.614;9.882;2022-07-09T12:46:44;102122.94;;;25.20;44.00
21520;BME280;10921;53.614;9.882;2022-07-09T12:49:10;102117.28;;;25.29;44.64
21520;BME280;10921;53.614;9.882;2022-07-09T12:51:37;102104.69;;;25.47;42.85
21520;BME280;10921;53.614;9.882;2022-07-09T12:54:03;102107.03;;;25.64;42.32
21520;BME280;10921;53.614;9.882;2022-07-09T12:56:30;102115.03;;;25.78;42.25
21520;BME280;10921;53.614;9.882;2022-07-09T12:59:17;102115.22;;;25.90;40.96
21520;BME280;10921;53.614;9.882;2022-07-09T13:01:45;102109.94;;;26.02;41.61